Time;durP1;ratioP1;P1;durP2;ratioP2;P2;SDS_P1;SDS_P2;PMS_P1;PMS_P2;Temp;Humidity;BMP_temperature;BMP_pressure;BME280_temperature;BME280_humidity;BME280_pressure;Samples;Min_cycle;Max_cycle;Signal;HPM_P1;HPM_P2
2022/01/11 00:00:50;;;;;;;13.07;6.80;;;2.70;99.90;;;2.77;93.62;102013.53;4951797;29;20299;-68
2022/01/11 00:03:18;;;;;;;11.15;6.43;;;2.70;99.90;;;2.87;92.87;102014.25;4952411;29;20219;-68
2022/01/11 00:05:54;;;;;;;14.85;6.68;;;2.80;99.90;;;2.93;91.89;102014.97;4953673;29;20279;-66
2022/01/11 00:08:29;;;;;;;13.70;7.57;;;2.90;99.90;;;2.99;92.17;102014.88;4952273;29;20225;-67
2022/01/11 00:11:04;;;;;;;13.25;6.78;;;2.90;99.90;;;3.04;91.10;102007.91;4951865;29;20819;-66
2022/01/11 00:13:42;;;;;;;14.48;6.05;;;3.00;99.90;;;3.06;91.25;102011.28;4951000;28;20215;-67
2022/01/11 00:16:13;;;;;;;12.50;6.07;;;3.00;99.90;;;3.09;91.18;102016.38;4951855;28;20228;-66
2022/01/11 00:18:40;;;;;;;11.98;5.95;;;3.00;99.90;;;3.10;90.91;102015.50;4936524;29;20292;-67
2022/01/11 00:21:08;;;;;;;16.35;6.10;;;3.00;99.90;;;3.13;90.23;102022.34;4952699;29;20201;-66
2022/01/11 00:26:03;;;;;;;10.60;6.55;;;3.00;99.90;;;3.01;90.77;102022.56;4950813;28;20224;-67
2022/01/11 00:28:31;;;;;;;15.13;6.32;;;2.90;99.90;;;2.94;91.00;102026.97;4940345;29;20221;-67
2022/01/11 00:30:58;;;;;;;12.55;6.60;;;2.90;99.90;;;2.97;91.32;102021.78;4933194;29;20753;-66
2022/01/11 00:33:47;;;;;;;11.00;5.63;;;2.90;99.90;;;3.02;91.21;102027.69;4952041;29;20299;-67
2022/01/11 00:36:13;;;;;;;8.60;5.60;;;2.90;99.90;;;3.06;91.07;102019.03;4951718;29;20231;-65
2022/01/11 00:38:41;;;;;;;9.88;5.80;;;3.00;99.90;;;3.10;90.47;102025.81;4952980;29;20232;-66
2022/01/11 00:41:12;;;;;;;12.40;6.18;;;3.10;99.90;;;3.16;90.25;102024.84;4951589;29;20211;-69
2022/01/11 00:43:41;;;;;;;11.20;5.80;;;3.10;99.90;;;3.14;90.09;102032.63;4952460;29;20232;-66
2022/01/11 00:46:10;;;;;;;16.55;6.43;;;3.10;99.90;;;3.14;89.72;102037.78;4951497;29;20264;-66
2022/01/11 00:48:39;;;;;;;9.68;5.75;;;3.10;99.90;;;3.15;89.48;102036.88;4952165;29;20220;-66
2022/01/11 00:51:09;;;;;;;20.35;6.85;;;3.10;99.90;;;3.21;89.79;102041.09;4951838;29;20205;-67
2022/01/11 00:53:36;;;;;;;10.32;5.22;;;3.10;99.90;;;3.23;89.83;102044.50;4937851;29;20213;-66
2022/01/11 00:56:04;;;;;;;15.70;5.43;;;3.20;99.90;;;3.25;89.11;102045.31;4911783;29;20225;-66
2022/01/11 00:58:31;;;;;;;12.27;5.05;;;3.20;99.90;;;3.26;89.20;102038.44;4950172;29;20284;-66
2022/01/11 01:00:58;;;;;;;9.85;5.97;;;3.20;99.90;;;3.24;88.90;102041.03;4951000;29;20235;-66
2022/01/11 01:03:26;;;;;;;13.20;6.55;;;3.20;99.90;;;3.25;89.79;102040.16;4950763;29;20263;-68
2022/01/11 01:05:54;;;;;;;7.25;5.15;;;3.20;99.90;;;3.30;88.75;102042.66;4934318;29;20224;-67
2022/01/11 01:08:21;;;;;;;10.27;5.60;;;3.20;99.90;;;3.23;89.50;102043.63;4934068;29;20641;-66
2022/01/11 01:10:48;;;;;;;9.45;5.07;;;3.10;99.90;;;3.26;89.52;102047.00;4934185;28;20276;-68
2022/01/11 01:13:20;;;;;;;9.98;5.95;;;3.20;99.90;;;3.23;89.67;102049.66;4950946;29;20207;-66
2022/01/11 01:15:50;;;;;;;9.50;6.32;;;3.10;99.90;;;3.27;89.30;102058.16;4968996;23;20228;-66
2022/01/11 01:18:22;;;;;;;15.30;6.88;;;3.20;99.90;;;3.26;89.08;102049.56;4991016;28;20204;-63
2022/01/11 01:20:51;;;;;;;11.43;5.68;;;3.20;99.90;;;3.29;88.96;102053.81;4972985;28;20207;-64
2022/01/11 01:23:19;;;;;;;11.45;5.70;;;3.20;99.90;;;3.31;89.14;102062.38;4990982;28;20222;-64
2022/01/11 01:25:47;;;;;;;9.45;6.25;;;3.30;99.90;;;3.26;88.92;102059.91;4988270;28;20798;-64
2022/01/11 01:28:15;;;;;;;11.90;5.82;;;3.20;99.90;;;3.26;89.40;102067.63;4974856;28;20196;-63
2022/01/11 01:30:42;;;;;;;14.30;7.18;;;3.20;99.90;;;3.30;88.94;102063.28;4958496;28;20223;-64
2022/01/11 01:33:09;;;;;;;10.13;4.97;;;3.20;99.90;;;3.32;88.94;102066.69;4975186;28;20591;-64
2022/01/11 01:35:42;;;;;;;11.15;5.40;;;3.30;99.90;;;3.35;88.42;102064.03;4958919;28;20200;-63
2022/01/11 01:38:10;;;;;;;15.60;5.90;;;3.30;99.90;;;3.32;89.25;102061.53;4958882;28;20200;-64
2022/01/11 01:40:44;;;;;;;10.93;6.15;;;3.20;99.90;;;3.34;88.83;102067.50;4957400;28;20226;-64
2022/01/11 01:43:13;;;;;;;11.43;5.13;;;3.30;99.90;;;3.35;88.73;102067.47;4975562;28;20220;-64
2022/01/11 01:45:43;;;;;;;9.48;4.65;;;3.30;99.90;;;3.36;88.59;102060.59;4974791;28;20216;-63
2022/01/11 01:48:15;;;;;;;11.68;6.20;;;3.30;99.90;;;3.38;88.52;102061.41;4970720;28;20774;-63
2022/01/11 01:50:43;;;;;;;19.95;6.38;;;3.30;99.90;;;3.34;88.51;102058.03;4981148;28;20347;-63
2022/01/11 01:53:14;;;;;;;20.02;6.70;;;3.30;99.90;;;3.29;88.97;102065.00;4979164;28;20211;-63
2022/01/11 01:55:44;;;;;;;14.10;6.47;;;3.20;99.90;;;3.29;88.81;102059.00;4974755;28;20369;-63
2022/01/11 01:58:13;;;;;;;10.73;6.15;;;3.20;99.90;;;3.30;88.39;102055.53;4970268;28;20287;-64
2022/01/11 02:00:45;;;;;;;15.20;6.28;;;3.20;99.90;;;3.27;88.75;102060.75;4968347;28;20744;-62
2022/01/11 02:03:15;;;;;;;13.95;6.45;;;3.20;99.90;;;3.27;88.57;102063.34;4979669;28;20204;-63
2022/01/11 02:05:43;;;;;;;10.35;5.78;;;3.20;99.90;;;3.29;88.94;102066.72;4982872;28;20676;-62
2022/01/11 02:08:13;;;;;;;11.30;6.38;;;3.20;99.90;;;3.27;89.26;102064.19;4973346;28;20283;-63
2022/01/11 02:10:40;;;;;;;14.27;7.00;;;3.20;99.90;;;3.29;88.96;102059.00;4972350;28;20227;-63
2022/01/11 02:13:10;;;;;;;12.93;6.70;;;3.20;99.90;;;3.22;88.63;102070.28;4974736;28;20188;-63
2022/01/11 02:15:38;;;;;;;15.55;7.40;;;3.20;99.90;;;3.08;89.70;102076.59;4973942;28;20208;-63
2022/01/11 02:18:14;;;;;;;16.60;6.93;;;3.00;99.90;;;2.96;89.86;102079.38;4972299;28;20206;-63
2022/01/11 02:20:46;;;;;;;10.55;6.30;;;2.90;99.90;;;3.02;89.89;102081.00;4972952;28;20291;-63
2022/01/11 02:23:15;;;;;;;13.45;6.85;;;2.90;99.90;;;3.01;89.73;102080.16;4957114;28;20668;-62
2022/01/11 02:25:43;;;;;;;12.32;6.90;;;2.90;99.90;;;3.02;90.05;102087.00;4965661;28;20586;-64
2022/01/11 02:28:17;;;;;;;17.30;7.18;;;3.00;99.90;;;2.93;90.23;102084.59;4992640;28;20211;-63
2022/01/11 02:30:45;;;;;;;14.23;6.97;;;2.90;99.90;;;2.90;89.95;102089.78;4958319;28;20703;-64
2022/01/11 02:33:32;;;;;;;15.20;6.65;;;2.80;99.90;;;2.87;90.69;102083.84;4970149;28;20204;-63
2022/01/11 02:36:05;;;;;;;16.33;7.85;;;2.80;99.90;;;2.88;90.59;102088.97;4963314;28;20707;-63
2022/01/11 02:38:32;;;;;;;13.18;6.60;;;2.80;99.90;;;2.90;90.00;102089.78;4979697;28;20207;-63
2022/01/11 02:40:59;;;;;;;11.77;5.75;;;2.80;99.90;;;2.90;89.71;102076.03;4973025;28;20192;-62
2022/01/11 02:43:26;;;;;;;12.55;5.85;;;2.80;99.90;;;2.88;89.91;102088.09;4974479;28;20208;-63
2022/01/11 02:45:55;;;;;;;7.93;5.20;;;2.80;99.90;;;2.89;90.03;102089.81;4972578;28;20275;-64
2022/01/11 02:48:22;;;;;;;9.68;4.75;;;2.80;99.90;;;2.92;90.07;102088.03;4973879;28;20231;-63
2022/01/11 02:50:49;;;;;;;15.70;7.50;;;2.80;99.90;;;2.80;89.58;102083.09;4971828;28;20223;-63
2022/01/11 02:53:17;;;;;;;13.70;7.13;;;2.80;99.90;;;2.83;90.55;102095.91;4974036;28;20195;-63
2022/01/11 02:55:45;;;;;;;13.85;6.00;;;2.80;99.90;;;2.89;89.79;102084.66;4976227;28;20660;-63
2022/01/11 02:58:13;;;;;;;11.35;5.85;;;2.80;99.90;;;2.93;89.79;102084.59;4966343;28;20688;-63
2022/01/11 03:00:41;;;;;;;15.48;5.68;;;2.90;99.90;;;2.97;89.73;102091.41;4975962;28;20234;-63
2022/01/11 03:03:22;;;;;;;17.48;6.65;;;2.90;99.90;;;3.02;89.49;102088.75;4956513;28;20796;-62
2022/01/11 03:06:02;;;;;;;13.82;6.35;;;3.00;99.90;;;3.03;89.24;102083.53;4972590;28;20231;-63
2022/01/11 03:08:33;;;;;;;14.65;6.00;;;3.00;99.90;;;2.96;89.22;102092.25;4973801;28;20228;-63
2022/01/11 03:11:01;;;;;;;11.02;5.93;;;2.90;99.90;;;2.97;89.43;102090.53;4965964;28;20247;-63
2022/01/11 03:13:27;;;;;;;13.77;6.70;;;2.90;99.90;;;2.99;89.10;102086.19;4954027;28;20686;-63
2022/01/11 03:15:54;;;;;;;20.75;8.63;;;2.90;99.90;;;2.99;89.52;102088.78;4971285;28;20894;-64
2022/01/11 03:18:22;;;;;;;12.48;6.13;;;2.90;99.90;;;3.04;89.72;102087.84;4972849;28;20228;-63
2022/01/11 03:20:51;;;;;;;10.88;5.65;;;3.00;99.90;;;3.01;89.85;102085.31;4981565;28;20748;-63
2022/01/11 03:23:20;;;;;;;9.38;5.20;;;3.00;99.90;;;3.02;89.12;102092.16;4973607;28;20215;-63
2022/01/11 03:25:51;;;;;;;9.57;5.72;;;3.00;99.90;;;3.05;89.02;102097.25;4974070;28;20216;-63
2022/01/11 03:28:20;;;;;;;8.40;4.85;;;3.00;99.90;;;3.07;88.37;102105.81;4972229;28;20200;-62
2022/01/11 03:30:48;;;;;;;11.23;5.70;;;3.10;99.90;;;3.08;88.88;102102.38;4955243;28;20236;-63
2022/01/11 03:33:15;;;;;;;11.75;6.30;;;3.10;99.90;;;3.05;88.88;102102.41;4972201;28;20213;-63
2022/01/11 03:35:43;;;;;;;10.15;5.75;;;3.00;99.90;;;3.02;89.20;102104.22;4973093;28;20234;-63
2022/01/11 03:38:13;;;;;;;12.35;5.80;;;3.00;99.90;;;2.96;89.33;102112.06;4972286;28;20204;-63
2022/01/11 03:40:40;;;;;;;8.75;5.00;;;2.90;99.90;;;2.90;89.72;102113.00;4973458;28;20278;-64
2022/01/11 03:43:08;;;;;;;12.35;7.00;;;2.80;99.90;;;2.79;89.96;102114.06;4971181;28;20580;-62
2022/01/11 03:45:36;;;;;;;13.88;7.28;;;2.80;99.90;;;2.81;90.41;102118.28;4973079;28;20204;-63
2022/01/11 03:48:07;;;;;;;11.80;7.18;;;2.70;99.90;;;2.79;90.00;102114.91;4954139;28;20287;-63
2022/01/11 03:50:34;;;;;;;13.90;5.80;;;2.80;99.90;;;2.72;91.28;102115.91;4971726;28;20228;-63
2022/01/11 03:53:12;;;;;;;15.77;7.50;;;2.70;99.90;;;2.72;90.81;102121.06;4973111;28;20222;-63
2022/01/11 03:55:58;;;;;;;13.20;7.35;;;2.70;99.90;;;2.75;91.43;102112.38;4969001;28;20185;-63
2022/01/11 03:58:28;;;;;;;16.73;8.00;;;2.70;99.90;;;2.73;91.17;102115.00;4969129;28;20290;-63
2022/01/11 04:00:57;;;;;;;11.50;5.70;;;2.80;99.90;;;2.71;91.71;102129.63;4971780;28;20214;-64
2022/01/11 04:03:26;;;;;;;12.48;6.90;;;2.70;99.90;;;2.76;91.27;102127.84;4970898;28;20271;-63
2022/01/11 04:05:54;;;;;;;11.05;6.32;;;2.70;99.90;;;2.77;91.75;102133.88;4968779;28;20606;-63
2022/01/11 04:08:23;;;;;;;12.82;6.65;;;2.80;99.90;;;2.85;90.84;102142.31;4970560;28;20287;-63
2022/01/11 04:10:50;;;;;;;17.17;7.70;;;2.80;99.90;;;2.88;90.99;102137.09;4968468;28;20723;-63
2022/01/11 04:13:17;;;;;;;8.70;5.18;;;2.90;99.90;;;3.00;90.26;102137.72;4980104;28;20184;-63
2022/01/11 04:15:44;;;;;;;13.95;6.05;;;3.00;99.90;;;2.93;90.89;102143.91;4990712;28;20214;-63
2022/01/11 04:18:11;;;;;;;19.05;6.75;;;2.90;99.90;;;2.96;90.84;102140.41;4971358;28;20608;-63
2022/01/11 04:20:38;;;;;;;13.77;6.90;;;2.90;99.90;;;2.94;91.04;102135.28;4972423;28;20192;-63
2022/01/11 04:23:07;;;;;;;15.52;7.63;;;2.90;99.90;;;2.97;90.89;102135.22;4977215;28;20206;-64
2022/01/11 04:25:34;;;;;;;11.50;7.03;;;2.90;99.90;;;2.96;90.52;102132.69;4978010;28;20625;-66
2022/01/11 04:28:02;;;;;;;12.95;5.75;;;2.90;99.90;;;2.98;90.39;102136.91;4954286;28;20554;-65
2022/01/11 04:30:29;;;;;;;14.63;7.15;;;3.00;99.90;;;2.99;90.42;102133.47;4972789;28;20231;-64
2022/01/11 04:32:56;;;;;;;13.20;7.00;;;2.90;99.90;;;2.95;90.78;102134.41;4982962;28;20641;-64
2022/01/11 04:35:23;;;;;;;15.13;6.70;;;2.90;99.90;;;2.96;90.54;102135.25;4991091;28;20416;-64
2022/01/11 04:37:50;;;;;;;10.63;6.25;;;3.00;99.90;;;2.95;91.08;102136.97;4991480;28;20707;-64
2022/01/11 04:40:17;;;;;;;18.10;7.30;;;2.90;99.90;;;2.91;91.50;102155.97;4987643;28;20203;-64
2022/01/11 04:42:44;;;;;;;16.33;6.82;;;2.80;99.90;;;2.99;91.09;102148.94;4982877;28;20199;-64
2022/01/11 04:45:14;;;;;;;14.45;7.50;;;2.90;99.90;;;3.05;91.00;102151.41;4973409;28;20203;-63
2022/01/11 04:47:45;;;;;;;10.43;5.72;;;3.10;99.90;;;3.08;90.99;102153.97;4987911;28;20223;-64
2022/01/11 04:50:12;;;;;;;15.38;8.43;;;3.10;99.90;;;3.07;90.86;102148.81;4955341;28;20213;-64
2022/01/11 04:52:39;;;;;;;11.90;6.93;;;3.00;99.90;;;3.09;91.54;102160.78;4952358;28;20204;-65
2022/01/11 04:55:08;;;;;;;11.10;6.68;;;3.10;99.90;;;3.12;91.01;102153.03;4970489;28;20189;-64
2022/01/11 04:57:43;;;;;;;12.38;5.95;;;3.10;99.90;;;3.08;90.46;102163.41;4970022;28;20730;-64
2022/01/11 05:00:14;;;;;;;11.10;5.80;;;3.10;99.90;;;3.06;91.29;102163.44;4971603;28;20222;-64
2022/01/11 05:02:41;;;;;;;16.13;6.18;;;3.00;99.90;;;3.02;91.41;102158.38;4971773;28;20694;-64
2022/01/11 05:05:09;;;;;;;11.15;5.63;;;2.90;99.90;;;3.05;91.08;102161.72;4974169;28;20204;-65
2022/01/11 05:07:45;;;;;;;11.95;6.10;;;3.00;99.90;;;3.10;91.02;102170.25;4974329;28;20223;-64
2022/01/11 05:10:12;;;;;;;12.98;5.80;;;3.10;99.90;;;3.12;91.24;102165.91;4976958;28;20233;-65
2022/01/11 05:12:40;;;;;;;15.10;6.05;;;3.10;99.90;;;3.13;90.86;102170.19;4986346;28;20201;-65
2022/01/11 05:15:09;;;;;;;11.18;5.47;;;3.10;99.90;;;3.12;90.63;102175.38;4989390;28;20675;-64
2022/01/11 05:17:38;;;;;;;11.60;6.70;;;3.10;99.90;;;3.13;91.48;102177.09;4974297;28;20235;-64
2022/01/11 05:20:07;;;;;;;12.45;6.25;;;3.10;99.90;;;3.15;91.20;102167.59;4956024;28;20212;-64
2022/01/11 05:22:34;;;;;;;17.85;7.13;;;3.10;99.90;;;3.15;90.95;102173.59;4960149;28;20238;-64
2022/01/11 05:25:01;;;;;;;11.73;5.95;;;3.10;99.90;;;3.11;90.98;102176.25;4976985;28;20238;-64
2022/01/11 05:27:28;;;;;;;14.02;6.63;;;3.00;99.90;;;3.09;90.92;102175.41;4993295;28;20317;-64
2022/01/11 05:29:55;;;;;;;9.00;5.18;;;3.00;99.90;;;3.10;91.48;102165.09;4983453;28;20234;-64
2022/01/11 05:32:22;;;;;;;12.25;6.53;;;3.00;99.90;;;3.13;90.96;102175.34;4974352;28;20569;-64
2022/01/11 05:34:49;;;;;;;11.85;6.00;;;3.10;99.90;;;3.15;90.91;102173.59;4972847;28;20698;-64
2022/01/11 05:37:16;;;;;;;12.95;7.70;;;3.10;99.90;;;3.15;91.24;102181.31;4981546;28;20722;-64
2022/01/11 05:39:43;;;;;;;12.57;6.38;;;3.10;99.90;;;3.11;91.42;102184.84;4977031;28;20204;-63
2022/01/11 05:42:10;;;;;;;11.13;6.25;;;3.10;99.90;;;3.17;90.96;102186.47;4974571;28;20204;-64
2022/01/11 05:44:37;;;;;;;14.73;7.65;;;3.10;99.90;;;3.14;90.70;102181.34;4974279;28;20299;-64
2022/01/11 05:47:05;;;;;;;8.38;5.20;;;3.10;99.90;;;3.03;91.46;102191.84;4972610;28;20232;-64
2022/01/11 05:49:32;;;;;;;12.07;6.72;;;3.00;99.90;;;3.07;91.46;102182.31;4975806;28;20200;-64
2022/01/11 05:51:59;;;;;;;10.30;6.65;;;3.00;99.90;;;3.07;92.00;102177.16;4973570;28;20226;-64
2022/01/11 05:54:26;;;;;;;13.98;7.72;;;3.00;99.90;;;2.92;92.58;102191.16;4974381;28;20203;-64
2022/01/11 05:56:53;;;;;;;15.25;7.75;;;2.90;99.90;;;2.96;92.02;102189.41;4977659;28;20220;-64
2022/01/11 05:59:20;;;;;;;20.27;6.13;;;2.90;99.90;;;3.00;92.42;102189.31;4983563;28;20576;-64
2022/01/11 06:01:47;;;;;;;7.07;5.15;;;2.90;99.90;;;2.87;91.96;102182.66;4977590;28;20204;-65
2022/01/11 06:04:14;;;;;;;19.17;7.93;;;2.90;99.90;;;2.86;92.99;102183.53;4975000;28;20203;-64
2022/01/11 06:06:41;;;;;;;12.55;5.45;;;2.80;99.90;;;2.81;92.65;102185.31;4971460;28;20219;-64
2022/01/11 06:09:08;;;;;;;10.18;6.00;;;2.70;99.90;;;2.76;93.69;102194.88;4973592;28;20206;-64
2022/01/11 06:11:35;;;;;;;11.82;6.40;;;2.70;99.90;;;2.79;93.14;102201.72;4956815;28;20751;-64
2022/01/11 06:14:03;;;;;;;8.23;5.40;;;2.70;99.90;;;2.85;92.71;102192.16;4975214;28;20204;-63
2022/01/11 06:16:29;;;;;;;12.05;7.18;;;2.80;99.90;;;2.86;92.87;102190.41;4974403;28;20236;-64
2022/01/11 06:18:56;;;;;;;13.80;7.35;;;2.80;99.90;;;2.83;93.32;102199.03;4975199;28;20290;-65
2022/01/11 06:21:24;;;;;;;9.25;5.40;;;2.80;99.90;;;2.86;93.33;102192.97;4980611;28;20214;-64
2022/01/11 06:23:50;;;;;;;12.80;5.43;;;2.80;99.90;;;2.83;92.94;102199.03;4986860;28;20206;-64
2022/01/11 06:26:17;;;;;;;11.07;5.60;;;2.80;99.90;;;2.78;94.04;102200.84;4973503;28;20231;-64
2022/01/11 06:28:45;;;;;;;15.48;7.95;;;2.70;99.90;;;2.64;93.84;102197.59;4973457;28;20576;-64
2022/01/11 06:31:12;;;;;;;10.25;6.70;;;2.70;99.90;;;2.70;94.26;102212.16;4971047;28;20738;-64
2022/01/11 06:33:40;;;;;;;12.85;6.35;;;2.70;99.90;;;2.73;93.76;102206.94;4981074;28;20201;-64
2022/01/11 06:36:10;;;;;;;18.65;7.93;;;2.70;99.90;;;2.73;93.78;102202.63;4970399;28;20220;-64
2022/01/11 06:38:39;;;;;;;17.73;8.30;;;2.70;99.90;;;2.72;93.87;102212.97;4956552;28;20275;-64
2022/01/11 06:41:06;;;;;;;6.13;4.10;;;2.70;99.90;;;2.74;94.10;102218.97;4956200;28;20212;-64
2022/01/11 06:43:33;;;;;;;9.48;6.07;;;2.70;99.90;;;2.74;93.79;102219.81;4975085;28;20208;-64
2022/01/11 06:46:00;;;;;;;10.20;5.03;;;2.70;99.90;;;2.79;94.05;102220.59;4972280;28;20759;-64
2022/01/11 06:48:27;;;;;;;15.38;7.22;;;2.70;99.90;;;2.83;93.84;102219.66;4973217;28;20207;-64
2022/01/11 06:50:54;;;;;;;6.60;4.50;;;2.80;99.90;;;2.84;93.42;102231.69;4974002;28;20228;-64
2022/01/11 06:53:21;;;;;;;13.35;6.55;;;2.80;99.90;;;2.87;93.83;102223.91;4963689;28;20201;-64
2022/01/11 06:55:50;;;;;;;12.52;6.68;;;2.80;99.90;;;2.95;93.00;102227.22;4970257;28;20639;-65
2022/01/11 06:58:17;;;;;;;11.68;6.43;;;2.90;99.90;;;2.95;93.46;102237.53;4976893;28;20567;-64
2022/01/11 07:00:44;;;;;;;14.70;6.55;;;2.90;99.90;;;2.98;93.29;102229.75;4984839;28;20203;-64
2022/01/11 07:03:12;;;;;;;11.40;6.18;;;2.90;99.90;;;3.05;93.16;102225.34;4978525;28;20235;-64
2022/01/11 07:05:39;;;;;;;8.10;5.13;;;3.00;99.90;;;3.02;92.73;102240.88;4951046;28;20210;-64
2022/01/11 07:08:06;;;;;;;3.28;2.97;;;3.00;99.90;;;3.04;93.08;102241.72;4971238;28;20196;-64
2022/01/11 07:10:33;;;;;;;14.63;6.57;;;3.00;99.90;;;3.11;92.66;102241.56;4955009;28;20318;-64
2022/01/11 07:13:02;;;;;;;9.80;5.88;;;3.10;99.90;;;3.06;93.03;102238.25;4971658;28;20196;-64
2022/01/11 07:15:30;;;;;;;10.40;6.00;;;3.00;99.90;;;3.06;93.55;102247.69;4970672;28;20204;-64
2022/01/11 07:17:58;;;;;;;7.90;5.18;;;3.00;99.90;;;3.10;93.05;102262.25;5008123;23;20670;-66
2022/01/11 07:20:25;;;;;;;4.80;3.45;;;3.00;99.90;;;3.15;93.22;102261.28;4982555;28;20206;-66
2022/01/11 07:22:52;;;;;;;8.98;5.00;;;3.10;99.90;;;3.19;93.36;102258.66;4976270;28;20290;-67
2022/01/11 07:25:19;;;;;;;13.88;6.57;;;3.20;99.90;;;3.20;93.18;102263.78;4993389;28;20207;-66
2022/01/11 07:27:46;;;;;;;12.63;7.55;;;3.20;99.90;;;3.23;93.47;102265.47;4982265;28;20302;-67
2022/01/11 07:30:13;;;;;;;10.60;6.05;;;3.20;99.90;;;3.17;92.91;102267.25;4972778;28;20808;-69
2022/01/11 07:32:40;;;;;;;4.10;3.08;;;3.20;99.90;;;3.22;92.88;102269.78;4962582;28;20291;-66
2022/01/11 07:35:08;;;;;;;10.40;5.40;;;3.20;99.90;;;3.27;92.55;102273.16;4988601;28;20664;-67
2022/01/11 07:37:35;;;;;;;10.80;5.28;;;3.30;99.90;;;3.26;92.68;102275.75;4991529;28;20715;-66
2022/01/11 07:40:02;;;;;;;11.32;6.05;;;3.20;99.90;;;3.26;92.14;102270.59;4973696;28;20203;-69
2022/01/11 07:42:29;;;;;;;14.45;7.32;;;3.20;99.90;;;3.27;91.81;102277.44;4981074;28;20690;-67
2022/01/11 07:44:56;;;;;;;9.70;5.85;;;3.20;99.90;;;3.27;91.71;102278.31;4988144;28;20207;-67
2022/01/11 07:47:24;;;;;;;10.45;5.93;;;3.20;99.90;;;3.26;92.27;102278.34;4972506;28;20227;-67
2022/01/11 07:49:51;;;;;;;11.80;5.32;;;3.20;99.90;;;3.27;92.28;102278.31;4972313;28;20219;-67
2022/01/11 07:52:18;;;;;;;10.27;5.47;;;3.20;99.90;;;3.29;92.40;102275.69;4973903;28;20238;-66
2022/01/11 07:54:45;;;;;;;13.00;5.93;;;3.30;99.90;;;3.35;92.08;102276.44;4959608;28;20227;-67
2022/01/11 07:57:12;;;;;;;13.15;5.82;;;3.30;99.90;;;3.34;91.68;102279.06;4983928;28;20219;-67
2022/01/11 07:59:39;;;;;;;8.80;6.05;;;3.30;99.90;;;3.43;91.28;102286.66;4983216;28;20239;-69
2022/01/11 08:02:21;;;;;;;10.60;5.15;;;3.40;99.90;;;3.43;91.22;102290.06;4963632;28;20208;-67
2022/01/11 08:04:51;;;;;;;17.20;6.50;;;3.40;99.90;;;3.42;91.42;102285.81;4983195;28;20287;-67
2022/01/11 08:07:18;;;;;;;16.25;6.00;;;3.40;99.90;;;3.44;91.37;102288.34;4973386;28;20740;-66
2022/01/11 08:09:45;;;;;;;11.60;5.75;;;3.40;99.90;;;3.39;92.07;102292.72;4975090;28;20214;-69
2022/01/11 08:12:12;;;;;;;22.98;10.10;;;3.30;99.90;;;3.46;91.62;102284.00;4953906;28;20224;-66
2022/01/11 08:14:40;;;;;;;18.05;8.50;;;3.40;99.90;;;3.44;91.21;102290.94;4975336;28;20204;-69
2022/01/11 08:17:07;;;;;;;15.50;6.78;;;3.40;99.90;;;3.44;91.24;102290.94;4974264;28;20223;-66
2022/01/11 08:19:34;;;;;;;12.20;6.78;;;3.40;99.90;;;3.45;91.32;102296.06;4969493;28;20204;-66
2022/01/11 08:22:00;;;;;;;14.93;7.15;;;3.50;99.90;;;3.37;91.99;102299.63;4971026;28;20295;-68
2022/01/11 08:24:28;;;;;;;18.77;10.70;;;3.40;99.90;;;3.40;92.18;102290.13;4970727;28;20204;-69
2022/01/11 08:26:54;;;;;;;4.85;2.75;;;3.40;99.90;;;3.48;91.72;102315.81;4971886;28;20234;-68
2022/01/11 08:29:22;;;;;;;16.27;7.13;;;3.50;99.90;;;3.49;91.97;102309.78;4953424;28;20208;-68
2022/01/11 08:31:52;;;;;;;7.53;5.10;;;3.50;99.90;;;3.56;91.57;102306.19;4966483;28;20268;-69
2022/01/11 08:34:19;;;;;;;6.50;4.18;;;3.60;99.90;;;3.64;91.95;102314.69;4961495;28;20212;-67
2022/01/11 08:36:48;;;;;;;1.95;1.63;;;3.60;99.90;;;3.73;91.04;102323.13;4970468;28;20211;-66
2022/01/11 08:39:16;;;;;;;13.48;4.90;;;3.70;99.90;;;3.79;90.23;102317.03;4968571;28;20258;-66
2022/01/11 08:41:46;;;;;;;5.47;4.30;;;3.80;99.90;;;3.82;90.18;102320.38;4971796;28;20211;-67
2022/01/11 08:44:13;;;;;;;8.55;5.47;;;3.80;99.90;;;3.90;90.87;102313.34;4971424;28;20211;-68
2022/01/11 08:46:43;;;;;;;10.48;5.95;;;3.90;99.90;;;4.00;90.33;102308.03;4970258;28;20218;-69
2022/01/11 08:49:12;;;;;;;13.90;7.40;;;4.00;99.90;;;4.02;89.54;102309.72;4954261;28;20208;-65
2022/01/11 08:51:40;;;;;;;12.60;6.85;;;4.10;99.90;;;4.02;89.23;102316.59;4978227;28;20267;-67
2022/01/11 08:54:08;;;;;;;8.57;4.60;;;4.00;99.90;;;4.03;89.20;102315.69;4986490;28;20663;-66
2022/01/11 08:56:35;;;;;;;8.88;5.85;;;4.00;99.90;;;4.02;89.23;102322.63;4970865;28;20207;-66
2022/01/11 08:59:03;;;;;;;11.43;6.72;;;4.00;99.90;;;4.07;89.44;102325.94;4969881;28;20200;-68
2022/01/11 09:01:34;;;;;;;8.27;5.80;;;4.10;99.90;;;4.10;88.78;102331.06;4985355;28;20203;-66
2022/01/11 09:04:02;;;;;;;14.18;7.07;;;4.10;99.90;;;4.02;89.47;102325.22;4992979;28;20216;-66
2022/01/11 09:06:29;;;;;;;10.57;6.00;;;4.00;99.90;;;4.02;89.40;102330.38;4994354;28;20234;-67
2022/01/11 09:09:16;;;;;;;10.60;5.97;;;4.00;99.90;;;4.08;89.42;102330.25;4977382;28;20243;-69
2022/01/11 09:11:45;;;;;;;9.32;6.20;;;4.10;99.90;;;4.16;89.00;102325.78;4993849;28;20262;-68
2022/01/11 09:14:13;;;;;;;11.40;6.85;;;4.20;99.90;;;4.29;88.79;102332.44;4975858;28;20212;-68
2022/01/11 09:16:40;;;;;;;10.02;5.55;;;4.30;99.90;;;4.36;88.42;102344.38;4994348;28;20218;-72
2022/01/11 09:19:12;;;;;;;9.93;4.30;;;4.40;99.90;;;4.44;88.02;102341.63;4993358;28;20212;-66
2022/01/11 09:21:40;;;;;;;7.57;3.92;;;4.50;99.90;;;4.60;87.48;102345.59;4991924;28;20251;-68
2022/01/11 09:24:08;;;;;;;9.05;5.30;;;4.70;99.90;;;4.80;86.96;102350.34;4972466;28;20212;-70
2022/01/11 09:26:37;;;;;;;12.20;6.88;;;4.90;99.90;;;4.84;86.72;102342.50;4989159;28;20254;-69
2022/01/11 09:29:04;;;;;;;10.45;5.63;;;5.00;99.90;;;4.97;86.68;102348.25;4985397;28;20185;-71
2022/01/11 09:31:31;;;;;;;7.32;4.70;;;5.10;99.90;;;5.06;85.33;102348.06;4999570;28;20288;-72
2022/01/11 09:33:59;;;;;;;13.30;6.82;;;5.20;99.90;;;5.10;84.85;102349.69;4998308;28;20214;-68
2022/01/11 09:36:29;;;;;;;11.85;6.32;;;5.20;99.90;;;5.12;85.11;102350.53;4986736;28;20290;-67
2022/01/11 09:38:56;;;;;;;14.98;6.60;;;5.20;99.90;;;5.09;85.18;102348.03;4991138;28;20234;-72
2022/01/11 09:41:25;;;;;;;12.70;6.32;;;5.10;99.90;;;5.00;85.60;102346.47;4984043;28;20200;-68
2022/01/11 09:43:52;;;;;;;11.18;5.10;;;5.00;99.90;;;5.04;85.13;102355.03;4983961;28;20208;-67
2022/01/11 09:46:19;;;;;;;10.43;6.07;;;5.00;99.90;;;4.99;85.88;102346.50;4985356;28;20736;-66
2022/01/11 09:48:48;;;;;;;7.80;4.97;;;5.00;99.90;;;4.96;86.01;102349.16;4986327;28;20709;-66
2022/01/11 09:51:15;;;;;;;12.60;6.38;;;5.00;99.90;;;4.99;86.36;102351.66;4972538;28;20248;-67
2022/01/11 09:53:42;;;;;;;19.10;10.43;;;5.00;99.90;;;5.05;86.59;102351.53;4979416;28;20731;-66
2022/01/11 09:56:11;;;;;;;19.58;8.95;;;5.10;99.90;;;5.09;85.79;102348.03;4973278;28;20431;-65
2022/01/11 09:58:38;;;;;;;11.15;6.05;;;5.10;99.90;;;5.09;86.27;102350.59;4973746;28;20236;-66
2022/01/11 10:01:05;;;;;;;11.60;5.93;;;5.10;99.90;;;5.10;86.24;102355.75;4961725;28;20204;-65
2022/01/11 10:03:57;;;;;;;15.32;6.82;;;5.10;99.90;;;5.12;86.13;102353.97;4975270;28;20692;-68
2022/01/11 10:06:25;;;;;;;14.15;7.05;;;5.10;99.90;;;5.20;85.82;102353.78;4976529;28;20200;-69
2022/01/11 10:09:16;;;;;;;15.77;7.45;;;5.20;99.90;;;5.24;85.44;102358.84;4971725;28;20227;-69
2022/01/11 10:11:48;;;;;;;11.38;5.35;;;5.30;99.90;;;5.19;85.33;102355.53;4973505;28;20782;-68
2022/01/11 10:14:32;;;;;;;12.70;7.85;;;5.20;99.90;;;5.18;85.07;102358.13;4956282;28;20660;-69
2022/01/11 10:17:22;;;;;;;14.95;6.43;;;5.20;99.90;;;5.16;85.52;102362.50;4954192;28;20232;-69
2022/01/11 10:20:08;;;;;;;9.43;5.75;;;5.20;99.90;;;5.11;85.07;102361.78;4956120;29;20301;-69
2022/01/11 10:22:48;;;;;;;11.98;6.57;;;5.10;99.90;;;5.05;85.91;102352.38;4955189;29;20208;-69
2022/01/11 10:25:16;;;;;;;13.65;7.30;;;5.00;99.90;;;5.05;85.76;102360.16;4969076;28;20299;-69
2022/01/11 10:27:46;;;;;;;11.93;6.82;;;5.10;99.90;;;5.12;85.32;102358.28;4974212;28;20230;-69
2022/01/11 10:30:18;;;;;;;11.05;5.95;;;5.10;99.90;;;5.09;86.38;102364.38;4938975;29;20212;-69